x

New London Ledge Ct - Ledge Light Weather Station (ldlc3) Weather Station

8:45am - Sun 22nd Oct 2017 All times are EDT. -4 hours from GMT.

  • Wind
    9mph, 10mph gusts
  • Air Temp 58°f
  • Sea Pressure 1029.3mb
  • New London Ledge Ct - Ledge Light Weather Station
  • New London Ledge Ct - Ledge Light Weather Station

More Historic Weather Station data

Upgrade to MSW Pro to gain access to the past 30 days of data for over 8000 Wavebouys and Weather Stations around the globe.

Join

Comparision Forecast

View Surf forecast
   
Sun 10/22 8:45am 9 10 mph 1029.3mb 58f
8:30am 9 10 mph 1029.2mb 56f
8:15am 9 10 mph 1029mb 55f
8:00am 9 10 mph 1028.8mb 54f
7:45am 9 11 mph 1028.5mb 54f
7:30am 10 11 mph 1028.3mb 54f
7:15am 8 8 mph 1028.3mb 54f
7:00am 9 10 mph 1028.1mb 54f
6:45am 10 10 mph 1028.1mb 54f
6:30am 9 10 mph 1028.1mb 54f
6:15am 9 11 mph 1028mb 54f
6:00am 10 11 mph 1027.9mb 54f
5:45am 9 10 mph 1027.7mb 54f
5:30am 9 10 mph 1027.6mb 55f
5:15am 8 9 mph 1027.4mb 55f
5:00am 6 7 mph 1027.4mb 55f
4:45am 5 6 mph 1027.3mb 55f
4:30am 7 8 mph 1027.3mb 55f
4:15am 7 8 mph 1027.2mb 55f
4:00am 8 9 mph 1027.1mb 55f
3:45am 8 9 mph 1027mb 56f
3:30am 7 8 mph 1026.9mb 56f
3:15am 7 8 mph 1026.9mb 56f
3:00am 5 5 mph 1026.9mb 57f
2:45am 5 6 mph 1026.9mb 57f
2:30am 3 5 mph 1026.9mb 57f
2:15am 3 5 mph 1026.9mb 58f
2:00am 3 3 mph 1027mb 58f
1:45am 3 3 mph 1027.2mb 58f
1:30am 6 6 mph 1027.2mb 58f
1:15am 5 6 mph 1027.1mb 58f
1:00am 5 6 mph 1027.1mb 59f
Sat 10/21 7:45pm 11 14 mph 1026.6mb 65f
7:30pm 11 11 mph 1026.4mb 65f
7:15pm 11 13 mph 1026.3mb 65f
7:00pm 13 14 mph 1026.1mb 65f
6:45pm 13 14 mph 1026.1mb 65f
6:30pm 14 15 mph 1026mb 65f
6:15pm 11 16 mph 1026mb 65f
6:00pm 10 11 mph 1025.9mb 65f
5:45pm 10 11 mph 1025.9mb 66f
5:30pm 11 14 mph 1025.6mb 66f
5:15pm 13 15 mph 1025.4mb 66f
5:00pm 14 16 mph 1025.3mb 66f
4:45pm 13 14 mph 1025.2mb 67f
4:30pm 14 16 mph 1025.1mb 67f
4:15pm 14 17 mph 1025.2mb 67f
4:00pm 11 13 mph 1025.1mb 68f
3:45pm 7 8 mph 1025.2mb 68f
3:30pm 10 11 mph 1025.1mb 67f
3:15pm 10 11 mph 1025mb 67f
3:00pm 11 13 mph 1025mb 67f
2:45pm 13 14 mph 1024.9mb 68f
2:30pm 10 11 mph 1024.9mb 68f
2:15pm 11 11 mph 1025.1mb 68f
2:00pm 11 11 mph 1025.1mb 67f
1:45pm 9 10 mph 1025.2mb 67f
1:30pm 8 9 mph 1025.2mb 67f
1:15pm 7 7 mph 1025.5mb 69f
1:00pm 8 9 mph 1025.7mb 68f
12:45pm 7 8 mph 1025.9mb 67f
12:30pm 8 9 mph 1026mb 67f
12:15pm 9 9 mph 1026.1mb 66f
12:00pm 7 8 mph 1026mb 66f
11:45am 7 7 mph 1026mb 66f
11:30am 6 7 mph 1026.1mb 67f
11:15am 5 6 mph 1026.2mb 66f
11:00am 6 7 mph 1026.4mb 65f
10:45am 5 6 mph 1026.4mb 63f
10:30am 5 6 mph 1026.4mb 63f
10:15am 5 6 mph 1026.4mb 65f
10:00am  -  2 mph 1026.3mb 67f
9:45am  -  1 mph 1026.2mb 65f
9:30am 2 2 mph 1026.1mb 64f
9:15am 5 7 mph 1026mb 61f
9:00am 6 7 mph 1026mb 60f
8:45am 6 7 mph 1025.9mb 60f
8:30am 6 7 mph 1025.6mb 58f
8:15am 3 5 mph 1025.6mb 59f
8:00am 5 6 mph 1025.2mb 58f
7:45am 2 3 mph 1025mb 57f
7:30am 1 2 mph 1024.8mb 57f
7:15am 2 2 mph 1024.4mb 55f
7:00am 3 3 mph 1024.2mb 55f
6:45am 5 6 mph 1024.1mb 55f
6:30am 7 8 mph 1024.1mb 56f
6:15am 6 7 mph 1023.8mb 56f
6:00am 2 3 mph 1023.6mb 56f
5:45am 5 6 mph 1023.5mb 57f
5:30am 3 6 mph 1023.4mb 57f
5:15am 11 14 mph 1023.1mb 56f
5:00am 15 16 mph 1022.8mb 56f
4:45am 15 16 mph 1022.4mb 56f
4:30am 16 17 mph 1022.3mb 57f
4:15am 14 15 mph 1022.1mb 56f
4:00am 14 15 mph 1022.1mb 57f
3:45am 14 16 mph 1021.9mb 58f
3:30am 14 15 mph 1021.9mb 58f
3:15am 14 15 mph 1021.9mb 57f
3:00am 13 15 mph 1021.9mb 59f
2:45am 13 16 mph 1021.9mb 59f
2:30am 13 14 mph 1021.9mb 59f
2:15am 11 13 mph 1022mb 58f
2:00am 10 11 mph 1022mb 58f
1:45am 10 13 mph 1022mb 58f
1:30am 14 15 mph 1021.8mb 58f
1:15am 15 16 mph 1021.6mb 58f
1:00am 11 14 mph 1021.8mb 58f
Fri 10/20 7:45pm 11 13 mph 1019.1mb 64f
7:30pm 9 10 mph 1018.8mb 65f
7:15pm 8 10 mph 1018.7mb 65f
7:00pm 9 11 mph 1018.5mb 65f
6:45pm 8 10 mph 1018.3mb 67f
6:30pm 10 11 mph 1018.1mb 67f
6:15pm 8 9 mph 1017.8mb 67f
6:00pm 8 10 mph 1017.7mb 68f
5:45pm 9 14 mph 1017.5mb 69f
5:30pm 11 14 mph 1017.3mb 70f
5:15pm 16 20 mph 1017mb 70f
5:00pm 22 28 mph 1016.7mb 70f
4:45pm 15 18 mph 1016.7mb 71f
4:30pm 17 21 mph 1016.6mb 71f
4:15pm 16 22 mph 1016.6mb 71f
4:00pm 16 21 mph 1016.5mb 70f
3:45pm 17 24 mph 1016.4mb 70f
3:30pm 16 21 mph 1016.4mb 70f
3:15pm 18 23 mph 1016.3mb 70f
3:00pm 20 22 mph 1016.2mb 69f
2:45pm 16 21 mph 1016.3mb 69f
2:30pm 15 21 mph 1016.3mb 69f
2:15pm 16 23 mph 1016.3mb 69f
2:00pm 14 21 mph 1016.4mb 69f
1:45pm 21 25 mph 1016.4mb 69f
1:30pm 20 28 mph 1016.6mb 69f
1:15pm 20 24 mph 1016.9mb 68f
1:00pm 23 28 mph 1017.1mb 68f
12:15pm 18 25 mph 1017.7mb 66f
12:00pm 13 15 mph 1018.3mb 66f
10:30am 17 22 mph 1018.8mb 63f
10:15am 18 24 mph 1018.9mb 62f
10:00am 18 23 mph 1018.9mb 62f
9:45am 16 20 mph 1018.7mb 62f
9:30am 15 21 mph 1018.7mb 61f
9:15am 17 26 mph 1018.6mb 60f
9:00am 13 17 mph 1018.6mb 61f
8:45am 15 21 mph 1018.5mb 61f
8:30am 15 18 mph 1018.5mb 60f
8:15am 14 16 mph 1018.4mb 58f
8:00am 11 14 mph 1018.3mb 57f
7:45am 10 11 mph 1018.1mb 58f
7:30am 11 13 mph 1017.7mb 58f
7:15am 10 11 mph 1017.5mb 59f
7:00am 8 8 mph 1017.4mb 58f
6:45am 8 10 mph 1017.4mb 58f
6:30am 11 13 mph 1017.4mb 58f
6:15am 11 13 mph 1017.2mb 58f
6:00am 9 11 mph 1016.9mb 57f
5:45am 10 11 mph 1016.9mb 58f
5:30am 8 9 mph 1016.7mb 57f
5:15am 7 8 mph 1016.6mb 58f
5:00am 7 8 mph 1016.5mb 58f
4:45am 6 7 mph 1016.4mb 58f
4:30am 8 9 mph 1016.4mb 59f
4:15am 11 14 mph 1016.5mb 60f
4:00am 15 16 mph 1016.2mb 61f
3:45am 15 17 mph 1016mb 61f
3:30am 15 17 mph 1016.2mb 62f
3:15am 14 17 mph 1016.2mb 62f
3:00am 13 15 mph 1016.1mb 61f
2:45am 13 15 mph 1016.2mb 63f
2:30am 16 20 mph 1016.1mb 64f
2:15am 20 24 mph 1016.2mb 64f
2:00am 23 26 mph 1016.3mb 65f
1:45am 25 28 mph 1016.1mb 65f
1:30am 22 25 mph 1016.4mb 65f
1:15am 23 25 mph 1016.3mb 65f
1:00am 23 26 mph 1016.3mb 65f
Thu 10/19 7:45pm 22 25 mph 1017.3mb 63f
7:30pm 23 28 mph 1017.3mb 63f
7:15pm 26 30 mph 1017.5mb 63f
7:00pm 28 30 mph 1017.4mb 63f
6:45pm 24 26 mph 1017.4mb 63f
6:30pm 28 31 mph 1017.2mb 63f
6:15pm 25 30 mph 1017.4mb 63f
6:00pm 26 30 mph 1017.6mb 63f
5:45pm 26 31 mph 1017.5mb 64f
5:30pm 25 29 mph 1017.7mb 64f
5:15pm 24 29 mph 1017.8mb 64f
5:00pm 25 29 mph 1018mb 64f
4:45pm 22 25 mph 1018.4mb 65f
4:30pm 22 24 mph 1018.5mb 65f
4:15pm 22 24 mph 1018.7mb 65f
4:00pm 23 26 mph 1019mb 65f
3:45pm 22 25 mph 1019.1mb 65f
3:30pm 22 24 mph 1019.3mb 65f
3:15pm 22 24 mph 1019.3mb 66f
3:00pm 22 25 mph 1019.6mb 66f
2:45pm 21 25 mph 1019.8mb 66f
2:30pm 23 25 mph 1020mb 66f
2:15pm 22 24 mph 1020.2mb 66f
2:00pm 23 26 mph 1020.2mb 66f
1:45pm 23 26 mph 1020.6mb 66f
1:30pm 22 25 mph 1020.8mb 66f
1:15pm 14 16 mph 1021.3mb 66f
1:00pm 15 16 mph 1021.5mb 66f
12:45pm 15 16 mph 1021.9mb 65f
12:30pm 17 20 mph 1022.3mb 65f
12:15pm 18 21 mph 1022.4mb 65f
12:00pm 18 22 mph 1022.4mb 65f
11:45am 21 23 mph 1022.6mb 66f
11:30am 18 21 mph 1022.8mb 66f
11:15am 18 21 mph 1022.9mb 66f
11:00am 17 21 mph 1023.1mb 66f
10:45am 16 18 mph 1023.2mb 66f
10:30am 16 20 mph 1023.4mb 65f
10:15am 11 16 mph 1023.5mb 65f
10:00am 15 17 mph 1023.5mb 65f
9:45am 16 17 mph 1023.6mb 64f
9:30am 16 17 mph 1023.6mb 64f
9:15am 17 18 mph 1023.6mb 64f
9:00am 17 18 mph 1023.7mb 64f
8:45am 16 17 mph 1023.7mb 64f
8:30am 16 17 mph 1023.7mb 63f
8:15am 16 18 mph 1023.7mb 63f
8:00am 16 17 mph 1023.6mb 63f
7:45am 15 17 mph 1023.6mb 62f
7:30am 10 14 mph 1023.6mb 60f
7:15am 2 5 mph 1023.7mb 56f
7:00am 3 5 mph 1023.6mb 56f
6:45am 3 5 mph 1023.6mb 56f
6:30am 2 3 mph 1023.6mb 56f
6:15am 3 5 mph 1023.8mb 56f
6:00am 6 7 mph 1023.7mb 56f
5:45am 5 6 mph 1023.6mb 56f
5:30am 5 6 mph 1023.6mb 56f
5:15am 3 5 mph 1023.6mb 56f
5:00am 6 7 mph 1023.6mb 56f
4:45am 6 7 mph 1023.7mb 56f
4:30am 5 7 mph 1023.6mb 56f
4:15am 5 6 mph 1023.7mb 56f
4:00am 5 6 mph 1023.7mb 56f
3:45am 5 6 mph 1023.8mb 56f
3:30am 6 6 mph 1023.7mb 57f
3:15am 6 6 mph 1023.7mb 57f
3:00am 6 7 mph 1024mb 57f
2:45am 6 7 mph 1024.1mb 57f
2:30am 6 7 mph 1024.1mb 58f
2:15am 5 6 mph 1024.1mb 58f
2:00am 3 5 mph 1024.2mb 59f
1:45am 5 7 mph 1024.4mb 60f
1:30am 3 6 mph 1024.4mb 61f
1:15am 11 13 mph 1024.4mb 63f
1:00am 9 13 mph 1024.3mb 62f
Wed 10/18 7:45pm 15 16 mph 1024.4mb 63f
7:30pm 15 16 mph 1024.4mb 63f
7:15pm 14 16 mph 1024.3mb 64f
7:00pm 14 15 mph 1024.2mb 64f
6:45pm 14 16 mph 1024.1mb 65f
6:30pm 11 14 mph 1023.9mb 65f
6:15pm 11 13 mph 1023.8mb 65f
6:00pm 13 14 mph 1023.6mb 65f
5:45pm 11 13 mph 1023.6mb 65f
5:30pm 13 14 mph 1023.7mb 65f
5:15pm 13 14 mph 1023.6mb 65f
5:00pm 15 15 mph 1023.4mb 65f
4:45pm 15 16 mph 1023.5mb 65f
4:30pm 16 18 mph 1023.4mb 65f
4:15pm 17 20 mph 1023.5mb 65f
4:00pm 18 21 mph 1023.5mb 65f
3:45pm 17 21 mph 1023.5mb 65f
3:30pm 18 20 mph 1023.5mb 65f
3:15pm 17 20 mph 1023.5mb 65f
3:00pm 18 21 mph 1023.5mb 64f
2:45pm 20 21 mph 1023.5mb 64f
2:30pm 18 20 mph 1023.6mb 64f
2:15pm 18 20 mph 1023.6mb 64f
2:00pm 16 17 mph 1023.7mb 64f
1:45pm 16 16 mph 1024mb 64f